Time;durP1;ratioP1;P1;durP2;ratioP2;P2;SDS_P1;SDS_P2;PMS_P1;PMS_P2;Temp;Humidity;BMP_temperature;BMP_pressure;BME280_temperature;BME280_humidity;BME280_pressure;Samples;Min_cycle;Max_cycle;Signal;HPM_P1;HPM_P2
2023/03/04 00:00:28;;;;;;;;;;;3.70;98.20;;;;;;5106266;28;19912;-73
2023/03/04 00:02:53;;;;;;;;;;;3.70;98.30;;;;;;5090028;28;19923;-73
2023/03/04 00:05:19;;;;;;;;;;;3.70;98.30;;;;;;5089646;28;19951;-73
2023/03/04 00:07:44;;;;;;;;;;;3.70;98.20;;;;;;5090488;28;19916;-73
2023/03/04 00:10:10;;;;;;;;;;;3.70;98.30;;;;;;5094582;28;19912;-73
2023/03/04 00:12:36;;;;;;;;;;;3.70;98.20;;;;;;5089401;28;19913;-73
2023/03/04 00:15:01;;;;;;;;;;;3.70;98.30;;;;;;5089542;28;19965;-73
2023/03/04 00:17:28;;;;;;;;;;;3.70;98.30;;;;;;5088911;28;20252;-73
2023/03/04 00:19:55;;;;;;;;;;;3.70;98.20;;;;;;5087116;28;19915;-74
2023/03/04 00:22:20;;;;;;;;;;;3.70;98.30;;;;;;5088136;28;19927;-74
2023/03/04 00:24:46;;;;;;;;;;;3.70;98.30;;;;;;5099042;28;19911;-73
2023/03/04 00:27:11;;;;;;;;;;;3.70;98.30;;;;;;5088743;28;19912;-73
2023/03/04 00:29:36;;;;;;;;;;;3.70;98.30;;;;;;5089200;28;19927;-74
2023/03/04 00:32:02;;;;;;;;;;;3.70;98.30;;;;;;5088923;28;20007;-74
2023/03/04 00:34:28;;;;;;;;;;;3.70;98.20;;;;;;5089004;28;19931;-74
2023/03/04 00:36:56;;;;;;;;;;;3.70;98.20;;;;;;5101980;28;19919;-74
2023/03/04 00:39:22;;;;;;;;;;;3.70;98.20;;;;;;5108710;28;20010;-73
2023/03/04 00:41:47;;;;;;;;;;;3.70;98.30;;;;;;5099897;28;19916;-75
2023/03/04 00:44:13;;;;;;;;;;;3.70;98.20;;;;;;5085412;28;20509;-74
2023/03/04 00:46:38;;;;;;;;;;;3.70;98.20;;;;;;5086949;28;19912;-74
2023/03/04 00:49:04;;;;;;;;;;;3.80;98.30;;;;;;5087334;28;19912;-74
2023/03/04 00:51:29;;;;;;;;;;;3.70;98.20;;;;;;5106925;28;19915;-74
2023/03/04 00:53:55;;;;;;;;;;;3.70;98.20;;;;;;5108704;28;20328;-74
2023/03/04 00:56:20;;;;;;;;;;;3.70;98.20;;;;;;5096297;28;19916;-74
2023/03/04 00:58:46;;;;;;;;;;;3.80;98.30;;;;;;5088072;28;20430;-73
2023/03/04 01:01:11;;;;;;;;;;;3.70;98.20;;;;;;5087926;28;19916;-74
2023/03/04 01:03:40;;;;;;;;;;;3.70;98.20;;;;;;5092446;28;19911;-74
2023/03/04 01:06:05;;;;;;;;;;;3.70;98.20;;;;;;5096036;28;19912;-74
2023/03/04 01:08:31;;;;;;;;;;;3.70;98.30;;;;;;5087719;28;19963;-74
2023/03/04 01:10:56;;;;;;;;;;;3.70;98.20;;;;;;5086132;28;19912;-74
2023/03/04 01:13:22;;;;;;;;;;;3.80;98.30;;;;;;5088047;28;19951;-74
2023/03/04 01:15:47;;;;;;;;;;;3.80;98.30;;;;;;5088074;28;19955;-74
2023/03/04 01:18:13;;;;;;;;;;;3.70;98.30;;;;;;5097697;28;19924;-73
2023/03/04 01:20:38;;;;;;;;;;;3.70;98.30;;;;;;5108187;28;19911;-74
2023/03/04 01:23:04;;;;;;;;;;;3.80;98.30;;;;;;5108448;28;19911;-74
2023/03/04 01:25:29;;;;;;;;;;;3.70;98.20;;;;;;5108380;28;19947;-73
2023/03/04 01:27:55;;;;;;;;;;;3.80;98.30;;;;;;5107446;28;20006;-74
2023/03/04 01:30:20;;;;;;;;;;;3.80;98.30;;;;;;5108177;28;19918;-74
2023/03/04 01:32:46;;;;;;;;;;;3.80;98.30;;;;;;5107573;28;19920;-74
2023/03/04 01:35:11;;;;;;;;;;;3.80;98.30;;;;;;5103178;28;20019;-74
2023/03/04 01:37:37;;;;;;;;;;;3.70;98.30;;;;;;5087588;28;19931;-74
2023/03/04 01:40:04;;;;;;;;;;;3.70;98.30;;;;;;5088357;28;19915;-74
2023/03/04 01:42:32;;;;;;;;;;;3.80;98.30;;;;;;5072659;28;19951;-74
2023/03/04 01:44:57;;;;;;;;;;;3.80;98.30;;;;;;5070165;28;20415;-74
2023/03/04 01:47:24;;;;;;;;;;;3.80;98.30;;;;;;5107780;28;19912;-74
2023/03/04 01:49:52;;;;;;;;;;;3.80;98.30;;;;;;5106183;28;19916;-73
2023/03/04 01:52:18;;;;;;;;;;;3.70;98.30;;;;;;5107521;28;19912;-73
2023/03/04 01:54:43;;;;;;;;;;;3.80;98.30;;;;;;5092701;28;19912;-73
2023/03/04 01:57:16;;;;;;;;;;;3.80;98.60;;;;;;5087083;28;19912;-73
2023/03/04 01:59:42;;;;;;;;;;;3.80;98.30;;;;;;5095392;28;19954;-74
2023/03/04 02:02:07;;;;;;;;;;;3.80;98.30;;;;;;5093851;28;19959;-74
2023/03/04 02:04:33;;;;;;;;;;;3.80;98.30;;;;;;5092275;28;19973;-74
2023/03/04 02:06:59;;;;;;;;;;;3.80;98.30;;;;;;5091510;28;20595;-74
2023/03/04 02:09:25;;;;;;;;;;;3.80;98.30;;;;;;5087247;28;20593;-74
2023/03/04 02:11:51;;;;;;;;;;;3.80;98.30;;;;;;5091592;28;19990;-73
2023/03/04 02:14:17;;;;;;;;;;;3.80;98.30;;;;;;5105222;28;19916;-73
2023/03/04 02:16:43;;;;;;;;;;;3.80;98.30;;;;;;5108512;28;20712;-74
2023/03/04 02:19:32;;;;;;;;;;;3.80;98.30;;;;;;5091094;28;19974;-74
2023/03/04 02:21:58;;;;;;;;;;;3.80;98.30;;;;;;5089551;28;20346;-74
2023/03/04 02:24:32;;;;;;;;;;;3.80;98.30;;;;;;5107082;28;19923;-74
2023/03/04 02:26:58;;;;;;;;;;;3.80;98.30;;;;;;5110922;28;19947;-73
2023/03/04 02:29:23;;;;;;;;;;;3.80;98.30;;;;;;5111869;28;20000;-74
2023/03/04 02:31:50;;;;;;;;;;;3.80;98.30;;;;;;5109850;28;20234;-73
2023/03/04 02:34:16;;;;;;;;;;;3.80;98.30;;;;;;5089979;28;19912;-74
2023/03/04 02:36:42;;;;;;;;;;;3.80;98.30;;;;;;5089728;28;20379;-73
2023/03/04 02:39:31;;;;;;;;;;;3.80;98.30;;;;;;5090404;28;19912;-74
2023/03/04 02:41:57;;;;;;;;;;;3.80;98.30;;;;;;5089313;28;20293;-73
2023/03/04 02:44:24;;;;;;;;;;;3.80;98.30;;;;;;5090807;28;19920;-74
2023/03/04 02:46:50;;;;;;;;;;;3.80;98.30;;;;;;5091359;28;19923;-74
2023/03/04 02:49:16;;;;;;;;;;;3.80;98.30;;;;;;5090719;28;19912;-74
2023/03/04 02:51:41;;;;;;;;;;;3.80;98.30;;;;;;5090783;28;19966;-74
2023/03/04 02:54:20;;;;;;;;;;;3.80;98.30;;;;;;5103848;28;19923;-74
2023/03/04 02:56:47;;;;;;;;;;;3.80;98.30;;;;;;5090911;28;20300;-74
2023/03/04 02:59:12;;;;;;;;;;;3.80;98.30;;;;;;5090870;28;19922;-73
2023/03/04 03:01:38;;;;;;;;;;;3.80;98.30;;;;;;5090338;28;20392;-74
2023/03/04 03:04:03;;;;;;;;;;;3.80;98.30;;;;;;5090767;28;19916;-73
2023/03/04 03:06:29;;;;;;;;;;;3.80;98.30;;;;;;5090521;28;19924;-73
2023/03/04 03:08:54;;;;;;;;;;;3.80;98.30;;;;;;5088175;28;19909;-74
2023/03/04 03:11:20;;;;;;;;;;;3.80;98.30;;;;;;5090282;28;19925;-74
2023/03/04 03:13:45;;;;;;;;;;;3.80;98.30;;;;;;5090804;28;19912;-74
2023/03/04 03:16:11;;;;;;;;;;;3.90;98.30;;;;;;5089054;28;19912;-74
2023/03/04 03:18:36;;;;;;;;;;;3.80;98.40;;;;;;5089980;28;20332;-74
2023/03/04 03:21:02;;;;;;;;;;;3.80;98.30;;;;;;5090166;28;19916;-74
2023/03/04 03:23:27;;;;;;;;;;;3.80;98.30;;;;;;5100477;28;19923;-74
2023/03/04 03:25:53;;;;;;;;;;;3.80;98.30;;;;;;5110903;28;19916;-73
2023/03/04 03:28:18;;;;;;;;;;;3.80;98.30;;;;;;5110476;27;20089;-73
2023/03/04 03:30:44;;;;;;;;;;;3.80;98.30;;;;;;5110650;28;20574;-74
2023/03/04 03:33:09;;;;;;;;;;;3.80;98.30;;;;;;5109438;28;19911;-73
2023/03/04 03:35:35;;;;;;;;;;;3.80;98.30;;;;;;5102497;28;19912;-74
2023/03/04 03:38:00;;;;;;;;;;;3.80;98.30;;;;;;5105484;28;19916;-73
2023/03/04 03:40:26;;;;;;;;;;;3.80;98.30;;;;;;5110469;27;19918;-73
2023/03/04 03:42:51;;;;;;;;;;;3.80;98.30;;;;;;5092665;28;20003;-73
2023/03/04 03:45:17;;;;;;;;;;;3.80;98.40;;;;;;5090062;28;19919;-74
2023/03/04 03:47:42;;;;;;;;;;;3.90;98.40;;;;;;5089844;28;20658;-73
2023/03/04 03:50:08;;;;;;;;;;;3.80;98.40;;;;;;5091780;28;19912;-73
2023/03/04 03:52:33;;;;;;;;;;;3.80;98.30;;;;;;5110330;28;19943;-74
2023/03/04 03:55:00;;;;;;;;;;;3.80;98.40;;;;;;5110112;28;20391;-74
2023/03/04 03:57:26;;;;;;;;;;;3.80;98.30;;;;;;5109678;28;20379;-74
2023/03/04 03:59:52;;;;;;;;;;;3.80;98.30;;;;;;5098849;28;20004;-74
2023/03/04 04:02:17;;;;;;;;;;;3.80;98.30;;;;;;5088130;28;19916;-74
2023/03/04 04:04:43;;;;;;;;;;;3.90;98.30;;;;;;5094927;28;20007;-74
2023/03/04 04:07:08;;;;;;;;;;;3.90;98.40;;;;;;5088913;28;20379;-74
2023/03/04 04:09:34;;;;;;;;;;;3.80;98.30;;;;;;5085892;28;19922;-74
2023/03/04 04:11:59;;;;;;;;;;;3.90;98.30;;;;;;5089007;28;19911;-74
2023/03/04 04:14:25;;;;;;;;;;;3.90;98.30;;;;;;5089678;28;19912;-74
2023/03/04 04:16:50;;;;;;;;;;;3.80;98.30;;;;;;5087293;28;19912;-74
2023/03/04 04:19:17;;;;;;;;;;;3.80;98.30;;;;;;5099976;28;19926;-74
2023/03/04 04:21:43;;;;;;;;;;;3.90;98.30;;;;;;5108640;28;19916;-73
2023/03/04 04:24:08;;;;;;;;;;;3.90;98.30;;;;;;5108391;28;19912;-74
2023/03/04 04:26:34;;;;;;;;;;;3.90;98.30;;;;;;5108900;28;19916;-74
2023/03/04 04:28:59;;;;;;;;;;;3.90;98.30;;;;;;5109328;28;19912;-74
2023/03/04 04:31:25;;;;;;;;;;;3.90;98.30;;;;;;5109544;28;19912;-74
2023/03/04 04:33:50;;;;;;;;;;;3.90;98.30;;;;;;5107485;28;19922;-74
2023/03/04 04:36:16;;;;;;;;;;;3.90;98.30;;;;;;5095480;28;20765;-74
2023/03/04 04:38:41;;;;;;;;;;;3.90;98.30;;;;;;5088722;28;20428;-74
2023/03/04 04:41:15;;;;;;;;;;;3.90;98.30;;;;;;5085183;28;19921;-74
2023/03/04 04:43:41;;;;;;;;;;;3.90;98.30;;;;;;5068505;28;19912;-74
2023/03/04 04:46:07;;;;;;;;;;;3.80;98.30;;;;;;5104358;27;20369;-74
2023/03/04 04:48:33;;;;;;;;;;;3.90;98.30;;;;;;5088589;28;19908;-74
2023/03/04 04:50:58;;;;;;;;;;;3.90;98.40;;;;;;5098116;28;20345;-74
2023/03/04 04:53:23;;;;;;;;;;;3.90;98.30;;;;;;5108974;28;20018;-74
2023/03/04 04:55:49;;;;;;;;;;;3.90;98.40;;;;;;5108979;28;19915;-74
2023/03/04 04:58:14;;;;;;;;;;;3.90;98.40;;;;;;5107098;28;19926;-74
2023/03/04 05:00:40;;;;;;;;;;;3.90;98.40;;;;;;5103235;28;19912;-74
2023/03/04 05:03:05;;;;;;;;;;;3.90;98.40;;;;;;5089596;28;19998;-74
2023/03/04 05:05:31;;;;;;;;;;;3.90;98.30;;;;;;5088307;28;19919;-73
2023/03/04 05:07:56;;;;;;;;;;;3.90;98.30;;;;;;5088045;28;19942;-74
2023/03/04 05:10:22;;;;;;;;;;;3.90;98.50;;;;;;5087826;28;20432;-74
2023/03/04 05:12:48;;;;;;;;;;;3.90;98.40;;;;;;5088176;28;20454;-74
2023/03/04 05:15:14;;;;;;;;;;;3.90;98.40;;;;;;5088515;28;19916;-74
2023/03/04 05:17:39;;;;;;;;;;;3.90;98.40;;;;;;5086730;28;19998;-74
2023/03/04 05:20:06;;;;;;;;;;;3.90;98.40;;;;;;5090127;28;19923;-74
2023/03/04 05:22:31;;;;;;;;;;;3.90;98.40;;;;;;5108509;28;19915;-74
2023/03/04 05:24:57;;;;;;;;;;;3.90;98.40;;;;;;5107354;28;19908;-74
2023/03/04 05:27:22;;;;;;;;;;;3.90;98.40;;;;;;5107980;28;19963;-74
2023/03/04 05:29:48;;;;;;;;;;;3.90;98.40;;;;;;5108269;28;19916;-74
2023/03/04 05:32:13;;;;;;;;;;;3.90;98.40;;;;;;5108126;28;19916;-75
2023/03/04 05:34:39;;;;;;;;;;;3.90;98.40;;;;;;5107184;28;20025;-74
2023/03/04 05:37:04;;;;;;;;;;;3.90;98.40;;;;;;5087651;28;19912;-74
2023/03/04 05:39:30;;;;;;;;;;;3.90;98.40;;;;;;5087850;28;19915;-74
2023/03/04 05:41:55;;;;;;;;;;;3.90;98.40;;;;;;5077794;28;19916;-74
2023/03/04 05:44:21;;;;;;;;;;;3.90;98.40;;;;;;5067918;28;20658;-74
2023/03/04 05:46:46;;;;;;;;;;;3.90;98.40;;;;;;5100015;28;19916;-74
2023/03/04 05:49:12;;;;;;;;;;;3.90;98.40;;;;;;5067651;28;19959;-73
2023/03/04 05:51:37;;;;;;;;;;;3.90;98.40;;;;;;5083390;28;19918;-74
2023/03/04 05:54:03;;;;;;;;;;;3.90;98.40;;;;;;5100280;28;20362;-74
2023/03/04 05:56:29;;;;;;;;;;;3.90;98.40;;;;;;5108047;28;19957;-74
2023/03/04 05:58:58;;;;;;;;;;;3.90;98.40;;;;;;5108013;28;19934;-74
2023/03/04 06:01:24;;;;;;;;;;;3.90;98.40;;;;;;5096372;28;20018;-74
2023/03/04 06:03:49;;;;;;;;;;;3.90;98.40;;;;;;5087805;28;20047;-74
2023/03/04 06:06:15;;;;;;;;;;;3.90;98.40;;;;;;5100998;28;19923;-74
2023/03/04 06:08:40;;;;;;;;;;;3.90;98.40;;;;;;5090854;28;20372;-74
2023/03/04 06:11:06;;;;;;;;;;;3.90;98.40;;;;;;5086980;28;20419;-75
2023/03/04 06:13:32;;;;;;;;;;;3.90;98.40;;;;;;5087392;28;19912;-74
2023/03/04 06:15:58;;;;;;;;;;;3.90;98.40;;;;;;5087275;28;19932;-74
2023/03/04 06:18:24;;;;;;;;;;;3.90;98.70;;;;;;5087328;28;19919;-74
2023/03/04 06:20:50;;;;;;;;;;;3.90;98.40;;;;;;5096530;28;20010;-73
2023/03/04 06:23:16;;;;;;;;;;;3.90;98.50;;;;;;5082071;28;19912;-74
2023/03/04 06:25:42;;;;;;;;;;;3.90;98.40;;;;;;5095636;28;19919;-74
2023/03/04 06:28:07;;;;;;;;;;;3.90;98.40;;;;;;5087092;28;19912;-74
2023/03/04 06:30:33;;;;;;;;;;;3.90;98.40;;;;;;5087497;28;20056;-74
2023/03/04 06:32:58;;;;;;;;;;;3.90;98.40;;;;;;5091523;28;19916;-74
2023/03/04 06:35:24;;;;;;;;;;;3.90;98.50;;;;;;5101514;28;19915;-74
2023/03/04 06:37:49;;;;;;;;;;;3.90;98.50;;;;;;5087391;28;20399;-74
2023/03/04 06:40:15;;;;;;;;;;;3.90;98.40;;;;;;5087014;28;19982;-74
2023/03/04 06:42:41;;;;;;;;;;;3.90;98.50;;;;;;5070182;28;19923;-74
2023/03/04 06:45:07;;;;;;;;;;;3.90;98.40;;;;;;5099046;28;19917;-74
2023/03/04 06:47:32;;;;;;;;;;;3.90;98.70;;;;;;5088319;28;20428;-74
2023/03/04 06:49:58;;;;;;;;;;;3.90;98.50;;;;;;5111040;28;20020;-74
2023/03/04 06:52:23;;;;;;;;;;;3.90;98.50;;;;;;5111534;28;19950;-74
2023/03/04 06:54:49;;;;;;;;;;;3.90;98.50;;;;;;5111543;28;19912;-74
2023/03/04 06:57:14;;;;;;;;;;;4.00;98.50;;;;;;5111245;28;19919;-74
2023/03/04 06:59:40;;;;;;;;;;;3.90;98.50;;;;;;5111742;28;19914;-74
2023/03/04 07:02:05;;;;;;;;;;;4.00;98.50;;;;;;5107434;28;19919;-73
2023/03/04 07:04:31;;;;;;;;;;;4.00;98.50;;;;;;5111291;28;19912;-74
2023/03/04 07:06:56;;;;;;;;;;;4.00;98.50;;;;;;5091411;28;19913;-74
2023/03/04 07:09:22;;;;;;;;;;;4.00;98.50;;;;;;5087596;28;19944;-74
2023/03/04 07:11:47;;;;;;;;;;;4.00;98.50;;;;;;5090323;28;19912;-73
2023/03/04 07:14:13;;;;;;;;;;;4.00;98.50;;;;;;5089304;28;19916;-74
2023/03/04 07:16:39;;;;;;;;;;;4.00;98.50;;;;;;5111106;28;19911;-74
2023/03/04 07:19:04;;;;;;;;;;;4.00;98.50;;;;;;5110579;28;20474;-73
2023/03/04 07:21:30;;;;;;;;;;;4.00;98.50;;;;;;5110514;28;19984;-74
2023/03/04 07:23:55;;;;;;;;;;;4.00;98.50;;;;;;5110562;28;20306;-74
2023/03/04 07:26:21;;;;;;;;;;;4.00;98.40;;;;;;5110613;28;19912;-74
2023/03/04 07:28:46;;;;;;;;;;;4.00;98.50;;;;;;5109719;28;19919;-74
2023/03/04 07:31:18;;;;;;;;;;;4.00;98.50;;;;;;5108729;28;19946;-74
2023/03/04 07:33:43;;;;;;;;;;;4.00;98.50;;;;;;5110853;28;19919;-74
2023/03/04 07:36:10;;;;;;;;;;;4.00;98.50;;;;;;5097762;28;19939;-74
2023/03/04 07:38:35;;;;;;;;;;;4.00;98.50;;;;;;5088851;28;19909;-74
2023/03/04 07:41:01;;;;;;;;;;;4.00;98.50;;;;;;5087722;28;19938;-74
2023/03/04 07:43:27;;;;;;;;;;;4.10;98.50;;;;;;5093963;28;20061;-74
2023/03/04 07:45:57;;;;;;;;;;;4.10;98.50;;;;;;5110882;28;19908;-74
2023/03/04 07:48:22;;;;;;;;;;;4.10;98.50;;;;;;5110338;28;19912;-74
2023/03/04 07:50:48;;;;;;;;;;;4.10;98.50;;;;;;5108944;28;19912;-75
2023/03/04 07:53:13;;;;;;;;;;;4.10;98.50;;;;;;5110344;28;20663;-75
2023/03/04 07:55:39;;;;;;;;;;;4.10;98.50;;;;;;5110459;28;20008;-74
2023/03/04 07:58:04;;;;;;;;;;;4.10;98.50;;;;;;5108497;28;19969;-74
2023/03/04 08:00:30;;;;;;;;;;;4.20;98.50;;;;;;5105103;28;20017;-74
2023/03/04 08:02:55;;;;;;;;;;;4.10;98.60;;;;;;5089905;28;19938;-74
2023/03/04 08:05:21;;;;;;;;;;;4.20;98.60;;;;;;5089716;28;20765;-74
2023/03/04 08:07:46;;;;;;;;;;;4.10;98.50;;;;;;5089457;28;19912;-75
2023/03/04 08:10:12;;;;;;;;;;;4.20;98.50;;;;;;5089632;28;19922;-74
2023/03/04 08:12:37;;;;;;;;;;;4.20;98.60;;;;;;5093251;28;19944;-74
2023/03/04 08:15:03;;;;;;;;;;;4.30;98.50;;;;;;5088194;28;19922;-74
2023/03/04 08:17:29;;;;;;;;;;;4.30;98.50;;;;;;5089288;28;20340;-74
2023/03/04 08:19:54;;;;;;;;;;;4.30;98.40;;;;;;5094677;28;20388;-74
2023/03/04 08:22:20;;;;;;;;;;;4.30;98.30;;;;;;5109669;28;20281;-74
2023/03/04 08:24:45;;;;;;;;;;;4.40;98.40;;;;;;5109196;28;20368;-74
2023/03/04 08:27:11;;;;;;;;;;;4.40;98.20;;;;;;5109384;28;19927;-74
2023/03/04 08:29:36;;;;;;;;;;;4.50;98.20;;;;;;5109968;28;19911;-74
2023/03/04 08:32:02;;;;;;;;;;;4.50;98.20;;;;;;5109414;27;19998;-74
2023/03/04 08:34:28;;;;;;;;;;;4.50;98.20;;;;;;5109643;28;19908;-74
2023/03/04 08:36:53;;;;;;;;;;;4.60;98.10;;;;;;5090203;28;20014;-75
2023/03/04 08:39:19;;;;;;;;;;;4.60;98.10;;;;;;5102686;28;20044;-74
2023/03/04 08:41:45;;;;;;;;;;;4.70;98.10;;;;;;5100608;28;19923;-74
2023/03/04 08:44:10;;;;;;;;;;;4.70;98.10;;;;;;5089095;28;19919;-74
2023/03/04 08:46:37;;;;;;;;;;;4.70;98.10;;;;;;5088910;28;19908;-74
2023/03/04 08:49:02;;;;;;;;;;;4.80;98.10;;;;;;5088945;28;19908;-74
2023/03/04 08:51:28;;;;;;;;;;;4.80;98.00;;;;;;5094318;28;19919;-74
2023/03/04 08:53:53;;;;;;;;;;;4.80;98.30;;;;;;5108515;28;19916;-74
2023/03/04 08:56:19;;;;;;;;;;;4.80;98.00;;;;;;5107802;28;19911;-74
2023/03/04 08:58:45;;;;;;;;;;;4.80;97.90;;;;;;5107614;28;19912;-74
2023/03/04 09:01:11;;;;;;;;;;;4.90;97.90;;;;;;5099177;28;20343;-75
2023/03/04 09:03:37;;;;;;;;;;;4.90;98.00;;;;;;5088756;28;19962;-74
2023/03/04 09:06:03;;;;;;;;;;;5.00;98.00;;;;;;5092884;28;20257;-73
2023/03/04 09:08:29;;;;;;;;;;;5.00;98.00;;;;;;5107969;28;20279;-74
2023/03/04 09:10:54;;;;;;;;;;;5.10;97.90;;;;;;5088101;28;19912;-74
2023/03/04 09:13:20;;;;;;;;;;;5.10;97.90;;;;;;5104990;28;19912;-75
2023/03/04 09:15:47;;;;;;;;;;;5.10;98.10;;;;;;5108781;28;19941;-74
2023/03/04 09:18:13;;;;;;;;;;;5.10;97.90;;;;;;5108212;28;20492;-74
2023/03/04 09:20:39;;;;;;;;;;;5.10;97.90;;;;;;5108606;28;19911;-74
2023/03/04 09:23:04;;;;;;;;;;;5.20;97.90;;;;;;5108458;28;19923;-74
2023/03/04 09:25:31;;;;;;;;;;;5.20;98.00;;;;;;5107885;28;19973;-74
2023/03/04 09:27:56;;;;;;;;;;;5.20;98.00;;;;;;5108506;28;19911;-74
2023/03/04 09:30:22;;;;;;;;;;;5.20;98.20;;;;;;5109056;28;19911;-74
2023/03/04 09:32:47;;;;;;;;;;;5.20;98.10;;;;;;5108618;28;19961;-75
2023/03/04 09:35:13;;;;;;;;;;;5.20;98.10;;;;;;5103612;28;19923;-74
2023/03/04 09:37:39;;;;;;;;;;;5.20;98.10;;;;;;5088218;28;20724;-74
2023/03/04 09:40:05;;;;;;;;;;;5.30;98.10;;;;;;5094877;28;19916;-74
2023/03/04 09:42:36;;;;;;;;;;;5.30;98.10;;;;;;5093232;28;19916;-74
2023/03/04 09:45:04;;;;;;;;;;;5.30;98.20;;;;;;5088134;28;20008;-75
2023/03/04 09:47:31;;;;;;;;;;;5.30;98.20;;;;;;5087954;28;19951;-75
2023/03/04 09:49:58;;;;;;;;;;;5.30;98.30;;;;;;5088210;28;20414;-75
2023/03/04 09:52:43;;;;;;;;;;;5.30;98.30;;;;;;5101144;28;20653;-74
2023/03/04 09:55:21;;;;;;;;;;;5.30;98.40;;;;;;5100709;28;20010;-74
2023/03/04 09:57:56;;;;;;;;;;;5.30;98.40;;;;;;5108358;28;20564;-74
2023/03/04 10:00:22;;;;;;;;;;;5.30;98.40;;;;;;5105658;28;19919;-74
2023/03/04 10:02:57;;;;;;;;;;;5.30;98.40;;;;;;5087707;28;19916;-74
2023/03/04 10:05:23;;;;;;;;;;;5.30;98.40;;;;;;5087920;28;19951;-75
2023/03/04 10:07:54;;;;;;;;;;;5.30;98.50;;;;;;5093349;28;19915;-75
2023/03/04 10:10:23;;;;;;;;;;;5.30;98.60;;;;;;5088717;28;19953;-74
2023/03/04 10:12:50;;;;;;;;;;;5.30;98.90;;;;;;5085613;28;19912;-74
2023/03/04 10:15:27;;;;;;;;;;;5.30;98.60;;;;;;5087667;28;19908;-74
2023/03/04 10:18:16;;;;;;;;;;;5.30;98.60;;;;;;5087788;28;20003;-74
2023/03/04 10:20:51;;;;;;;;;;;5.30;98.60;;;;;;5099910;28;19919;-75
2023/03/04 10:23:18;;;;;;;;;;;5.30;98.60;;;;;;5103220;28;19942;-74
2023/03/04 10:25:45;;;;;;;;;;;5.40;98.60;;;;;;5102989;28;19939;-75
2023/03/04 10:28:11;;;;;;;;;;;5.40;98.60;;;;;;5102091;28;19918;-75
2023/03/04 10:30:48;;;;;;;;;;;5.40;98.60;;;;;;5103595;28;19907;-75
2023/03/04 10:33:18;;;;;;;;;;;5.40;98.70;;;;;;5099976;28;20003;-75
2023/03/04 10:35:47;;;;;;;;;;;5.40;98.60;;;;;;5103013;28;19916;-74
2023/03/04 10:38:14;;;;;;;;;;;5.40;98.70;;;;;;5101702;28;19919;-75
2023/03/04 10:40:40;;;;;;;;;;;5.40;98.70;;;;;;5102909;28;19912;-75
2023/03/04 10:43:12;;;;;;;;;;;5.40;98.70;;;;;;5103665;28;19958;-74
2023/03/04 10:45:39;;;;;;;;;;;5.50;98.60;;;;;;5098973;28;19923;-75
2023/03/04 10:48:04;;;;;;;;;;;5.50;98.60;;;;;;5103306;28;20295;-74
2023/03/04 10:50:31;;;;;;;;;;;5.50;98.60;;;;;;5101991;28;19919;-74
2023/03/04 10:52:57;;;;;;;;;;;5.50;98.60;;;;;;5110458;28;19912;-74
2023/03/04 10:55:26;;;;;;;;;;;5.50;98.70;;;;;;5111597;28;19908;-74
2023/03/04 10:57:53;;;;;;;;;;;5.50;98.70;;;;;;5110167;28;20706;-75
2023/03/04 11:00:19;;;;;;;;;;;5.50;98.70;;;;;;5108992;28;19946;-74
2023/03/04 11:02:45;;;;;;;;;;;5.50;98.70;;;;;;5090939;28;20368;-74
2023/03/04 11:05:17;;;;;;;;;;;5.50;98.70;;;;;;5105393;28;19961;-75
2023/03/04 11:07:45;;;;;;;;;;;5.50;98.70;;;;;;5090746;28;19918;-75
2023/03/04 11:10:10;;;;;;;;;;;5.50;98.80;;;;;;5087688;28;19943;-75
2023/03/04 11:12:36;;;;;;;;;;;5.50;98.80;;;;;;5105623;28;19962;-75
2023/03/04 11:15:02;;;;;;;;;;;5.50;98.90;;;;;;5111128;28;19957;-74
2023/03/04 11:17:37;;;;;;;;;;;5.50;98.90;;;;;;5110041;28;19916;-75
2023/03/04 11:20:03;;;;;;;;;;;5.50;98.90;;;;;;5111083;28;19918;-75
2023/03/04 11:22:30;;;;;;;;;;;5.50;98.90;;;;;;5110862;28;19916;-74
2023/03/04 11:24:58;;;;;;;;;;;5.50;99.00;;;;;;5111210;28;19937;-74
2023/03/04 11:27:29;;;;;;;;;;;5.50;99.00;;;;;;5109395;28;20401;-74
2023/03/04 11:30:13;;;;;;;;;;;5.50;99.00;;;;;;5110843;28;19912;-74
2023/03/04 11:32:42;;;;;;;;;;;5.50;99.00;;;;;;5108900;28;19923;-75
2023/03/04 11:35:10;;;;;;;;;;;5.60;98.90;;;;;;5106349;28;19912;-74
2023/03/04 11:37:47;;;;;;;;;;;5.60;98.90;;;;;;5090026;28;19919;-75
2023/03/04 11:40:17;;;;;;;;;;;5.60;98.80;;;;;;5090415;28;19919;-75
2023/03/04 11:42:54;;;;;;;;;;;5.60;98.80;;;;;;5073427;28;20250;-74
2023/03/04 11:45:30;;;;;;;;;;;5.60;98.80;;;;;;5070017;28;20348;-75
2023/03/04 11:48:05;;;;;;;;;;;5.60;98.80;;;;;;5091288;28;19916;-74
2023/03/04 11:50:53;;;;;;;;;;;5.60;98.80;;;;;;5095630;28;19912;-75
2023/03/04 11:53:32;;;;;;;;;;;5.70;98.90;;;;;;5079250;28;19911;-74
2023/03/04 11:56:12;;;;;;;;;;;5.70;98.90;;;;;;5110633;28;20333;-75
2023/03/04 11:58:43;;;;;;;;;;;5.80;98.80;;;;;;5109962;28;19954;-74
2023/03/04 12:01:13;;;;;;;;;;;5.90;98.80;;;;;;5094279;27;20509;-75
2023/03/04 12:03:45;;;;;;;;;;;5.90;98.60;;;;;;5097913;28;19915;-75
2023/03/04 12:06:19;;;;;;;;;;;6.00;98.50;;;;;;5089454;28;19965;-74
2023/03/04 12:08:53;;;;;;;;;;;6.00;98.60;;;;;;5084620;28;21318;-75
2023/03/04 12:11:39;;;;;;;;;;;6.00;98.50;;;;;;5088804;28;19918;-75
2023/03/04 12:14:23;;;;;;;;;;;6.00;98.50;;;;;;5088378;28;19916;-74
2023/03/04 12:17:01;;;;;;;;;;;5.90;98.60;;;;;;5088913;28;19912;-75
2023/03/04 12:19:39;;;;;;;;;;;6.00;98.60;;;;;;5090252;28;19920;-75
2023/03/04 12:22:10;;;;;;;;;;;6.00;98.90;;;;;;5094614;28;19920;-75
2023/03/04 12:24:36;;;;;;;;;;;6.00;98.90;;;;;;5090307;28;19912;-75
2023/03/04 12:27:01;;;;;;;;;;;6.00;99.00;;;;;;5097106;28;19912;-75
2023/03/04 12:29:27;;;;;;;;;;;6.00;99.10;;;;;;5088902;28;19919;-75
2023/03/04 12:31:59;;;;;;;;;;;6.00;99.00;;;;;;5087286;28;19908;-75
2023/03/04 12:34:42;;;;;;;;;;;6.00;98.90;;;;;;5077628;28;19917;-74
2023/03/04 12:37:21;;;;;;;;;;;6.00;98.90;;;;;;5071307;28;19916;-75
2023/03/04 12:40:09;;;;;;;;;;;6.00;99.00;;;;;;5074568;28;19923;-76
2023/03/04 12:42:41;;;;;;;;;;;6.00;99.00;;;;;;5063897;28;19921;-75
2023/03/04 12:45:31;;;;;;;;;;;6.00;99.10;;;;;;5076159;28;20726;-75
2023/03/04 12:48:03;;;;;;;;;;;6.00;99.20;;;;;;5076519;28;20568;-74
2023/03/04 12:50:34;;;;;;;;;;;6.00;99.10;;;;;;5084615;28;19915;-75
2023/03/04 12:53:32;;;;;;;;;;;6.00;99.20;;;;;;5092519;28;19933;-75
2023/03/04 12:55:58;;;;;;;;;;;6.00;99.00;;;;;;5055302;28;19916;-75
2023/03/04 12:58:28;;;;;;;;;;;6.00;99.10;;;;;;5088020;28;20712;-75
2023/03/04 13:00:54;;;;;;;;;;;6.00;99.00;;;;;;5086751;28;19920;-75
2023/03/04 13:03:22;;;;;;;;;;;6.00;99.00;;;;;;5088004;28;19919;-75
2023/03/04 13:06:06;;;;;;;;;;;6.00;99.10;;;;;;5088180;28;19918;-75
2023/03/04 13:08:31;;;;;;;;;;;6.00;99.10;;;;;;5088103;28;20546;-75
2023/03/04 13:10:59;;;;;;;;;;;6.00;99.20;;;;;;5070088;28;19912;-76
2023/03/04 13:13:31;;;;;;;;;;;6.00;99.30;;;;;;5088970;28;19912;-75
2023/03/04 13:16:03;;;;;;;;;;;6.00;99.30;;;;;;5100426;28;19923;-75
2023/03/04 13:18:31;;;;;;;;;;;6.00;99.30;;;;;;5079845;28;19920;-74
2023/03/04 13:21:15;;;;;;;;;;;6.00;99.30;;;;;;5077358;28;19935;-74
2023/03/04 13:23:40;;;;;;;;;;;6.00;99.30;;;;;;5096880;28;19964;-75
2023/03/04 13:26:21;;;;;;;;;;;6.00;99.30;;;;;;5107727;28;21276;-75
2023/03/04 13:28:51;;;;;;;;;;;6.00;99.30;;;;;;5107261;28;19922;-76
2023/03/04 13:31:19;;;;;;;;;;;6.10;99.30;;;;;;5106771;28;19912;-75
2023/03/04 13:33:45;;;;;;;;;;;6.00;99.40;;;;;;5108110;28;19962;-76
2023/03/04 13:36:25;;;;;;;;;;;6.10;99.40;;;;;;5095681;28;19940;-76
2023/03/04 13:39:01;;;;;;;;;;;6.10;99.40;;;;;;5087304;28;20310;-75
2023/03/04 13:41:30;;;;;;;;;;;6.00;99.50;;;;;;5081381;28;20003;-75
2023/03/04 13:44:04;;;;;;;;;;;6.00;99.50;;;;;;5070759;28;19954;-76
2023/03/04 13:46:39;;;;;;;;;;;6.00;99.50;;;;;;5087849;28;19916;-75
2023/03/04 13:49:06;;;;;;;;;;;6.00;99.60;;;;;;5087242;28;19912;-75
2023/03/04 13:51:43;;;;;;;;;;;6.00;99.60;;;;;;5087666;28;19919;-76
2023/03/04 13:54:14;;;;;;;;;;;6.00;99.60;;;;;;5100499;28;20366;-76
2023/03/04 13:56:46;;;;;;;;;;;6.00;99.60;;;;;;5107341;28;20387;-75
2023/03/04 13:59:17;;;;;;;;;;;6.00;99.70;;;;;;5106056;28;19912;-76
2023/03/04 14:01:42;;;;;;;;;;;6.00;99.70;;;;;;5086654;28;19969;-75
2023/03/04 14:04:14;;;;;;;;;;;6.00;99.70;;;;;;5087768;28;19916;-75
2023/03/04 14:06:41;;;;;;;;;;;6.00;99.70;;;;;;5087650;28;19918;-76
2023/03/04 14:09:12;;;;;;;;;;;6.10;99.60;;;;;;5084062;28;19916;-75
2023/03/04 14:11:41;;;;;;;;;;;6.10;99.60;;;;;;5087035;28;19918;-75
2023/03/04 14:14:10;;;;;;;;;;;6.10;99.40;;;;;;5087338;28;20556;-75
2023/03/04 14:16:55;;;;;;;;;;;6.10;99.30;;;;;;5087466;28;20632;-76
2023/03/04 14:19:20;;;;;;;;;;;6.10;99.40;;;;;;5106244;28;19934;-75
2023/03/04 14:21:46;;;;;;;;;;;6.10;99.50;;;;;;5107459;28;19916;-76
2023/03/04 14:24:13;;;;;;;;;;;6.10;99.60;;;;;;5107570;28;20571;-76
2023/03/04 14:26:38;;;;;;;;;;;6.10;99.50;;;;;;5107381;28;19912;-75
2023/03/04 14:29:42;;;;;;;;;;;6.10;99.60;;;;;;5106913;28;19924;-75
2023/03/04 14:32:10;;;;;;;;;;;6.10;99.60;;;;;;5064045;28;19951;-76
2023/03/04 14:34:37;;;;;;;;;;;6.10;99.60;;;;;;5051634;28;19913;-75